sensor_id;sensor_type;location;lat;lon;timestamp;temperature;humidity
36206;DHT22;22242;48.796;9.930;2023-01-16T00:01:17;2.70;99.90
36206;DHT22;22242;48.796;9.930;2023-01-16T00:03:46;2.70;99.90
36206;DHT22;22242;48.796;9.930;2023-01-16T00:06:13;2.70;99.90
36206;DHT22;22242;48.796;9.930;2023-01-16T00:08:41;3.00;99.90
36206;DHT22;22242;48.796;9.930;2023-01-16T00:11:08;3.00;99.90
36206;DHT22;22242;48.796;9.930;2023-01-16T00:13:35;2.90;99.90
36206;DHT22;22242;48.796;9.930;2023-01-16T00:16:02;2.80;99.90
36206;DHT22;22242;48.796;9.930;2023-01-16T00:18:28;3.10;99.90
36206;DHT22;22242;48.796;9.930;2023-01-16T00:20:57;3.10;99.90
36206;DHT22;22242;48.796;9.930;2023-01-16T00:23:23;3.20;99.90
36206;DHT22;22242;48.796;9.930;2023-01-16T00:25:50;3.30;99.90
36206;DHT22;22242;48.796;9.930;2023-01-16T00:28:17;3.30;99.90
36206;DHT22;22242;48.796;9.930;2023-01-16T00:30:44;3.20;99.90
36206;DHT22;22242;48.796;9.930;2023-01-16T00:33:12;3.30;99.90
36206;DHT22;22242;48.796;9.930;2023-01-16T00:35:39;3.20;99.90
36206;DHT22;22242;48.796;9.930;2023-01-16T00:38:07;3.20;99.90
36206;DHT22;22242;48.796;9.930;2023-01-16T00:40:34;3.10;99.90
36206;DHT22;22242;48.796;9.930;2023-01-16T00:43:01;3.10;99.90
36206;DHT22;22242;48.796;9.930;2023-01-16T00:45:27;3.10;99.90
36206;DHT22;22242;48.796;9.930;2023-01-16T00:47:54;3.10;99.90
36206;DHT22;22242;48.796;9.930;2023-01-16T00:50:21;3.10;99.90
36206;DHT22;22242;48.796;9.930;2023-01-16T00:52:48;3.20;99.90
36206;DHT22;22242;48.796;9.930;2023-01-16T00:55:16;3.40;99.90
36206;DHT22;22242;48.796;9.930;2023-01-16T00:57:43;3.40;99.90
36206;DHT22;22242;48.796;9.930;2023-01-16T01:00:10;3.40;99.90
36206;DHT22;22242;48.796;9.930;2023-01-16T01:02:37;3.40;99.90
36206;DHT22;22242;48.796;9.930;2023-01-16T01:05:05;3.50;99.90
36206;DHT22;22242;48.796;9.930;2023-01-16T01:07:33;3.40;99.90
36206;DHT22;22242;48.796;9.930;2023-01-16T01:09:59;3.50;99.90
36206;DHT22;22242;48.796;9.930;2023-01-16T01:12:28;3.50;99.90
36206;DHT22;22242;48.796;9.930;2023-01-16T01:14:55;3.60;99.90
36206;DHT22;22242;48.796;9.930;2023-01-16T01:17:21;3.60;99.90
36206;DHT22;22242;48.796;9.930;2023-01-16T01:19:48;3.50;99.90
36206;DHT22;22242;48.796;9.930;2023-01-16T01:22:15;3.50;99.90
36206;DHT22;22242;48.796;9.930;2023-01-16T01:24:42;3.50;99.90
36206;DHT22;22242;48.796;9.930;2023-01-16T01:27:09;3.50;99.90
36206;DHT22;22242;48.796;9.930;2023-01-16T01:29:38;3.50;99.90
36206;DHT22;22242;48.796;9.930;2023-01-16T01:32:05;3.40;99.90
36206;DHT22;22242;48.796;9.930;2023-01-16T01:34:32;3.50;99.90
36206;DHT22;22242;48.796;9.930;2023-01-16T01:37:00;3.40;99.90
36206;DHT22;22242;48.796;9.930;2023-01-16T01:39:27;3.40;99.90
36206;DHT22;22242;48.796;9.930;2023-01-16T01:41:53;3.50;99.90
36206;DHT22;22242;48.796;9.930;2023-01-16T01:44:55;3.60;99.90
36206;DHT22;22242;48.796;9.930;2023-01-16T01:47:25;3.70;99.90
36206;DHT22;22242;48.796;9.930;2023-01-16T01:49:55;3.70;99.90
36206;DHT22;22242;48.796;9.930;2023-01-16T01:52:23;3.50;99.90
36206;DHT22;22242;48.796;9.930;2023-01-16T01:54:53;3.50;99.90
36206;DHT22;22242;48.796;9.930;2023-01-16T01:57:24;3.50;99.90
36206;DHT22;22242;48.796;9.930;2023-01-16T01:59:55;3.40;99.90
36206;DHT22;22242;48.796;9.930;2023-01-16T02:02:28;3.40;99.90
36206;DHT22;22242;48.796;9.930;2023-01-16T02:04:57;3.40;99.90
36206;DHT22;22242;48.796;9.930;2023-01-16T02:07:26;3.50;99.90
36206;DHT22;22242;48.796;9.930;2023-01-16T02:09:59;3.40;99.90
36206;DHT22;22242;48.796;9.930;2023-01-16T02:12:28;3.30;99.90
36206;DHT22;22242;48.796;9.930;2023-01-16T02:14:56;3.30;99.90
36206;DHT22;22242;48.796;9.930;2023-01-16T02:17:24;3.40;99.90
36206;DHT22;22242;48.796;9.930;2023-01-16T02:20:17;3.40;99.90
36206;DHT22;22242;48.796;9.930;2023-01-16T02:26:42;3.40;99.90
36206;DHT22;22242;48.796;9.930;2023-01-16T02:32:13;3.50;99.90
36206;DHT22;22242;48.796;9.930;2023-01-16T02:35:05;3.40;99.90
36206;DHT22;22242;48.796;9.930;2023-01-16T02:37:40;3.40;99.90
36206;DHT22;22242;48.796;9.930;2023-01-16T02:40:27;3.30;99.90
36206;DHT22;22242;48.796;9.930;2023-01-16T02:43:06;3.30;99.90
36206;DHT22;22242;48.796;9.930;2023-01-16T02:45:42;3.40;99.90
36206;DHT22;22242;48.796;9.930;2023-01-16T02:48:14;3.60;99.90
36206;DHT22;22242;48.796;9.930;2023-01-16T02:50:53;3.50;99.90
36206;DHT22;22242;48.796;9.930;2023-01-16T02:53:25;3.30;99.90
36206;DHT22;22242;48.796;9.930;2023-01-16T02:55:55;3.40;99.90
36206;DHT22;22242;48.796;9.930;2023-01-16T02:58:30;3.40;99.90
36206;DHT22;22242;48.796;9.930;2023-01-16T03:00:59;3.50;99.90
36206;DHT22;22242;48.796;9.930;2023-01-16T03:03:38;3.20;99.90
36206;DHT22;22242;48.796;9.930;2023-01-16T03:09:00;3.30;99.90
36206;DHT22;22242;48.796;9.930;2023-01-16T03:11:36;3.40;99.90
36206;DHT22;22242;48.796;9.930;2023-01-16T03:14:16;3.40;99.90
36206;DHT22;22242;48.796;9.930;2023-01-16T03:16:55;3.40;99.90
36206;DHT22;22242;48.796;9.930;2023-01-16T03:19:40;3.40;99.90
36206;DHT22;22242;48.796;9.930;2023-01-16T03:22:12;3.50;99.90
36206;DHT22;22242;48.796;9.930;2023-01-16T03:24:53;3.40;99.90
36206;DHT22;22242;48.796;9.930;2023-01-16T03:27:29;3.40;99.90
36206;DHT22;22242;48.796;9.930;2023-01-16T03:30:05;3.40;99.90
36206;DHT22;22242;48.796;9.930;2023-01-16T03:32:35;3.50;99.90
36206;DHT22;22242;48.796;9.930;2023-01-16T03:35:09;3.30;99.90
36206;DHT22;22242;48.796;9.930;2023-01-16T03:37:39;3.10;99.90
36206;DHT22;22242;48.796;9.930;2023-01-16T03:40:10;3.00;99.90
36206;DHT22;22242;48.796;9.930;2023-01-16T03:42:42;2.90;99.90
36206;DHT22;22242;48.796;9.930;2023-01-16T03:45:14;2.90;99.90
36206;DHT22;22242;48.796;9.930;2023-01-16T03:47:46;2.90;99.90
36206;DHT22;22242;48.796;9.930;2023-01-16T03:50:18;2.70;99.90
36206;DHT22;22242;48.796;9.930;2023-01-16T03:52:51;2.60;99.90
36206;DHT22;22242;48.796;9.930;2023-01-16T03:55:23;2.60;99.90
36206;DHT22;22242;48.796;9.930;2023-01-16T03:57:53;2.50;99.90
36206;DHT22;22242;48.796;9.930;2023-01-16T04:00:21;2.40;99.90
36206;DHT22;22242;48.796;9.930;2023-01-16T04:02:53;2.40;99.90
36206;DHT22;22242;48.796;9.930;2023-01-16T04:05:25;2.40;99.90
36206;DHT22;22242;48.796;9.930;2023-01-16T04:07:56;2.40;99.90
36206;DHT22;22242;48.796;9.930;2023-01-16T04:10:27;2.40;99.90
36206;DHT22;22242;48.796;9.930;2023-01-16T04:12:59;2.30;99.90
36206;DHT22;22242;48.796;9.930;2023-01-16T04:15:29;2.40;99.90
36206;DHT22;22242;48.796;9.930;2023-01-16T04:17:57;2.30;99.90
36206;DHT22;22242;48.796;9.930;2023-01-16T04:20:28;2.30;99.90
36206;DHT22;22242;48.796;9.930;2023-01-16T04:22:55;2.20;99.90
36206;DHT22;22242;48.796;9.930;2023-01-16T04:25:22;2.20;99.90
36206;DHT22;22242;48.796;9.930;2023-01-16T04:27:49;2.30;99.90
36206;DHT22;22242;48.796;9.930;2023-01-16T04:30:16;2.30;99.90
36206;DHT22;22242;48.796;9.930;2023-01-16T04:32:43;2.20;99.90
36206;DHT22;22242;48.796;9.930;2023-01-16T04:35:11;2.10;99.90
36206;DHT22;22242;48.796;9.930;2023-01-16T04:37:40;2.10;99.90
36206;DHT22;22242;48.796;9.930;2023-01-16T04:40:08;2.00;99.90
36206;DHT22;22242;48.796;9.930;2023-01-16T04:42:35;2.00;99.90
36206;DHT22;22242;48.796;9.930;2023-01-16T04:45:02;2.00;99.90
36206;DHT22;22242;48.796;9.930;2023-01-16T04:47:28;2.10;99.90
36206;DHT22;22242;48.796;9.930;2023-01-16T04:49:55;2.00;99.90
36206;DHT22;22242;48.796;9.930;2023-01-16T04:52:22;2.00;99.90
36206;DHT22;22242;48.796;9.930;2023-01-16T04:54:50;2.10;99.90
36206;DHT22;22242;48.796;9.930;2023-01-16T04:57:17;2.00;99.90
36206;DHT22;22242;48.796;9.930;2023-01-16T04:59:44;2.00;99.90
36206;DHT22;22242;48.796;9.930;2023-01-16T05:02:11;2.00;99.90
36206;DHT22;22242;48.796;9.930;2023-01-16T05:04:37;1.90;99.90
36206;DHT22;22242;48.796;9.930;2023-01-16T05:07:04;1.80;99.90
36206;DHT22;22242;48.796;9.930;2023-01-16T05:09:31;1.90;99.90
36206;DHT22;22242;48.796;9.930;2023-01-16T05:12:00;1.80;99.90
36206;DHT22;22242;48.796;9.930;2023-01-16T05:14:26;1.70;99.90
36206;DHT22;22242;48.796;9.930;2023-01-16T05:16:53;1.80;99.90
36206;DHT22;22242;48.796;9.930;2023-01-16T05:19:20;1.80;99.90
36206;DHT22;22242;48.796;9.930;2023-01-16T05:21:47;1.80;99.90
36206;DHT22;22242;48.796;9.930;2023-01-16T05:24:14;1.80;99.90
36206;DHT22;22242;48.796;9.930;2023-01-16T05:26:40;1.80;99.90
36206;DHT22;22242;48.796;9.930;2023-01-16T05:29:09;1.80;99.90
36206;DHT22;22242;48.796;9.930;2023-01-16T05:31:35;1.80;99.90
36206;DHT22;22242;48.796;9.930;2023-01-16T05:34:02;1.70;99.90
36206;DHT22;22242;48.796;9.930;2023-01-16T05:36:29;1.70;99.90
36206;DHT22;22242;48.796;9.930;2023-01-16T05:38:56;1.60;99.90
36206;DHT22;22242;48.796;9.930;2023-01-16T05:41:23;1.60;99.90
36206;DHT22;22242;48.796;9.930;2023-01-16T05:43:49;1.60;99.90
36206;DHT22;22242;48.796;9.930;2023-01-16T05:46:18;1.70;99.90
36206;DHT22;22242;48.796;9.930;2023-01-16T05:48:45;1.60;99.90
36206;DHT22;22242;48.796;9.930;2023-01-16T05:51:11;1.60;99.90
36206;DHT22;22242;48.796;9.930;2023-01-16T05:53:38;1.80;99.90
36206;DHT22;22242;48.796;9.930;2023-01-16T05:56:10;1.80;99.90
36206;DHT22;22242;48.796;9.930;2023-01-16T05:58:37;1.80;99.90
36206;DHT22;22242;48.796;9.930;2023-01-16T06:01:04;1.70;99.90
36206;DHT22;22242;48.796;9.930;2023-01-16T06:03:32;1.70;99.90
36206;DHT22;22242;48.796;9.930;2023-01-16T06:05:59;1.70;99.90
36206;DHT22;22242;48.796;9.930;2023-01-16T06:08:27;1.60;99.90
36206;DHT22;22242;48.796;9.930;2023-01-16T06:10:54;1.40;99.90
36206;DHT22;22242;48.796;9.930;2023-01-16T06:13:22;1.30;99.90
36206;DHT22;22242;48.796;9.930;2023-01-16T06:15:49;1.20;99.90
36206;DHT22;22242;48.796;9.930;2023-01-16T06:18:16;1.10;99.90
36206;DHT22;22242;48.796;9.930;2023-01-16T06:20:44;1.10;99.90
36206;DHT22;22242;48.796;9.930;2023-01-16T06:23:11;0.90;99.90
36206;DHT22;22242;48.796;9.930;2023-01-16T06:25:38;0.90;99.90
36206;DHT22;22242;48.796;9.930;2023-01-16T06:28:04;0.80;99.90
36206;DHT22;22242;48.796;9.930;2023-01-16T06:30:31;0.80;99.90
36206;DHT22;22242;48.796;9.930;2023-01-16T06:32:58;0.70;99.90
36206;DHT22;22242;48.796;9.930;2023-01-16T06:35:25;0.70;99.90
36206;DHT22;22242;48.796;9.930;2023-01-16T06:37:53;0.70;99.90
36206;DHT22;22242;48.796;9.930;2023-01-16T06:40:20;0.70;99.90
36206;DHT22;22242;48.796;9.930;2023-01-16T06:42:47;0.60;99.90
36206;DHT22;22242;48.796;9.930;2023-01-16T06:45:14;0.60;99.90
36206;DHT22;22242;48.796;9.930;2023-01-16T06:47:40;0.50;99.90
36206;DHT22;22242;48.796;9.930;2023-01-16T06:50:09;0.50;99.90
36206;DHT22;22242;48.796;9.930;2023-01-16T06:52:36;0.50;99.90
36206;DHT22;22242;48.796;9.930;2023-01-16T06:55:07;0.50;99.90
36206;DHT22;22242;48.796;9.930;2023-01-16T06:57:34;0.50;99.90
36206;DHT22;22242;48.796;9.930;2023-01-16T07:00:03;0.60;99.90
36206;DHT22;22242;48.796;9.930;2023-01-16T07:02:30;0.60;99.90
36206;DHT22;22242;48.796;9.930;2023-01-16T07:04:57;0.60;99.90
36206;DHT22;22242;48.796;9.930;2023-01-16T07:07:23;0.60;99.90
36206;DHT22;22242;48.796;9.930;2023-01-16T07:09:50;0.60;99.90
36206;DHT22;22242;48.796;9.930;2023-01-16T07:12:18;0.70;99.90
36206;DHT22;22242;48.796;9.930;2023-01-16T07:14:45;0.80;99.90
36206;DHT22;22242;48.796;9.930;2023-01-16T07:17:30;0.90;99.90
36206;DHT22;22242;48.796;9.930;2023-01-16T07:20:15;1.00;99.90
36206;DHT22;22242;48.796;9.930;2023-01-16T07:23:00;1.10;99.90
36206;DHT22;22242;48.796;9.930;2023-01-16T07:25:30;1.10;99.90
36206;DHT22;22242;48.796;9.930;2023-01-16T07:28:01;1.20;99.90
36206;DHT22;22242;48.796;9.930;2023-01-16T07:30:28;1.30;99.90
36206;DHT22;22242;48.796;9.930;2023-01-16T07:32:55;1.40;99.90
36206;DHT22;22242;48.796;9.930;2023-01-16T07:35:22;1.40;99.90
36206;DHT22;22242;48.796;9.930;2023-01-16T07:37:49;1.30;99.90
36206;DHT22;22242;48.796;9.930;2023-01-16T07:40:17;1.30;99.90
36206;DHT22;22242;48.796;9.930;2023-01-16T07:42:44;1.40;99.90
36206;DHT22;22242;48.796;9.930;2023-01-16T07:45:12;1.40;99.90
36206;DHT22;22242;48.796;9.930;2023-01-16T07:47:39;1.40;99.90
36206;DHT22;22242;48.796;9.930;2023-01-16T07:50:06;1.50;99.90
36206;DHT22;22242;48.796;9.930;2023-01-16T07:52:33;1.50;99.90
36206;DHT22;22242;48.796;9.930;2023-01-16T07:55:00;1.50;99.90
36206;DHT22;22242;48.796;9.930;2023-01-16T07:57:27;1.60;99.90
36206;DHT22;22242;48.796;9.930;2023-01-16T07:59:54;1.70;99.90
36206;DHT22;22242;48.796;9.930;2023-01-16T08:02:22;1.70;99.90
36206;DHT22;22242;48.796;9.930;2023-01-16T08:04:49;1.90;99.90
36206;DHT22;22242;48.796;9.930;2023-01-16T08:07:16;1.90;99.90
36206;DHT22;22242;48.796;9.930;2023-01-16T08:09:43;2.10;99.90
36206;DHT22;22242;48.796;9.930;2023-01-16T08:12:10;2.10;99.90
36206;DHT22;22242;48.796;9.930;2023-01-16T08:14:37;2.40;99.90
36206;DHT22;22242;48.796;9.930;2023-01-16T08:17:04;2.50;99.90
36206;DHT22;22242;48.796;9.930;2023-01-16T08:19:33;2.70;99.90
36206;DHT22;22242;48.796;9.930;2023-01-16T08:21:59;2.80;99.90
36206;DHT22;22242;48.796;9.930;2023-01-16T08:24:27;2.90;99.90
36206;DHT22;22242;48.796;9.930;2023-01-16T08:26:54;3.10;99.90
36206;DHT22;22242;48.796;9.930;2023-01-16T08:29:21;3.70;99.90
36206;DHT22;22242;48.796;9.930;2023-01-16T08:31:48;4.30;99.90
36206;DHT22;22242;48.796;9.930;2023-01-16T08:34:15;4.90;99.90
36206;DHT22;22242;48.796;9.930;2023-01-16T08:36:43;6.20;99.90
36206;DHT22;22242;48.796;9.930;2023-01-16T08:39:11;6.70;99.90
36206;DHT22;22242;48.796;9.930;2023-01-16T08:41:38;6.70;99.90
36206;DHT22;22242;48.796;9.930;2023-01-16T08:44:22;7.30;99.90
36206;DHT22;22242;48.796;9.930;2023-01-16T08:47:10;7.30;99.70
36206;DHT22;22242;48.796;9.930;2023-01-16T08:49:56;7.10;99.90
36206;DHT22;22242;48.796;9.930;2023-01-16T08:52:42;6.00;99.90
36206;DHT22;22242;48.796;9.930;2023-01-16T08:55:09;5.90;99.90
36206;DHT22;22242;48.796;9.930;2023-01-16T08:57:36;5.20;99.90
36206;DHT22;22242;48.796;9.930;2023-01-16T09:00:04;4.50;99.90
36206;DHT22;22242;48.796;9.930;2023-01-16T09:02:32;4.30;99.90
36206;DHT22;22242;48.796;9.930;2023-01-16T09:05:01;4.20;99.90
36206;DHT22;22242;48.796;9.930;2023-01-16T09:07:28;4.30;99.90
36206;DHT22;22242;48.796;9.930;2023-01-16T09:09:56;4.20;99.90
36206;DHT22;22242;48.796;9.930;2023-01-16T09:12:23;4.40;99.90
36206;DHT22;22242;48.796;9.930;2023-01-16T09:15:08;4.30;99.90
36206;DHT22;22242;48.796;9.930;2023-01-16T09:17:35;4.40;99.90
36206;DHT22;22242;48.796;9.930;2023-01-16T09:20:02;4.40;99.90
36206;DHT22;22242;48.796;9.930;2023-01-16T09:22:30;4.20;99.90
36206;DHT22;22242;48.796;9.930;2023-01-16T09:24:59;4.20;99.90
36206;DHT22;22242;48.796;9.930;2023-01-16T09:27:26;4.10;99.90
36206;DHT22;22242;48.796;9.930;2023-01-16T09:29:53;4.30;99.90
36206;DHT22;22242;48.796;9.930;2023-01-16T09:32:20;4.20;99.90
36206;DHT22;22242;48.796;9.930;2023-01-16T09:34:48;3.90;99.90
36206;DHT22;22242;48.796;9.930;2023-01-16T09:37:15;3.80;99.90
36206;DHT22;22242;48.796;9.930;2023-01-16T09:39:42;3.90;99.90
36206;DHT22;22242;48.796;9.930;2023-01-16T09:42:40;3.90;99.90
36206;DHT22;22242;48.796;9.930;2023-01-16T09:45:31;3.70;99.90
36206;DHT22;22242;48.796;9.930;2023-01-16T09:48:01;3.60;99.90
36206;DHT22;22242;48.796;9.930;2023-01-16T09:50:34;3.50;99.90
36206;DHT22;22242;48.796;9.930;2023-01-16T09:53:03;3.50;99.90
36206;DHT22;22242;48.796;9.930;2023-01-16T09:55:49;3.60;99.90
36206;DHT22;22242;48.796;9.930;2023-01-16T09:58:40;3.80;99.90
36206;DHT22;22242;48.796;9.930;2023-01-16T10:01:13;3.50;99.90
36206;DHT22;22242;48.796;9.930;2023-01-16T10:03:40;3.30;99.90
36206;DHT22;22242;48.796;9.930;2023-01-16T10:06:20;3.20;99.90
36206;DHT22;22242;48.796;9.930;2023-01-16T10:09:00;3.20;99.90
36206;DHT22;22242;48.796;9.930;2023-01-16T10:11:36;3.40;99.90
36206;DHT22;22242;48.796;9.930;2023-01-16T10:14:22;3.60;99.90
36206;DHT22;22242;48.796;9.930;2023-01-16T10:16:58;3.70;99.90
36206;DHT22;22242;48.796;9.930;2023-01-16T10:19:38;3.60;99.90
36206;DHT22;22242;48.796;9.930;2023-01-16T10:22:16;3.60;99.90
36206;DHT22;22242;48.796;9.930;2023-01-16T10:24:52;3.70;99.90
36206;DHT22;22242;48.796;9.930;2023-01-16T10:27:28;3.80;99.90
36206;DHT22;22242;48.796;9.930;2023-01-16T10:30:02;3.80;99.90
36206;DHT22;22242;48.796;9.930;2023-01-16T10:32:33;3.80;99.90
36206;DHT22;22242;48.796;9.930;2023-01-16T10:35:06;3.80;99.90
36206;DHT22;22242;48.796;9.930;2023-01-16T10:37:33;3.70;99.90
36206;DHT22;22242;48.796;9.930;2023-01-16T10:40:11;3.70;99.90
36206;DHT22;22242;48.796;9.930;2023-01-16T10:42:41;3.70;99.90
36206;DHT22;22242;48.796;9.930;2023-01-16T10:45:30;3.60;99.90
36206;DHT22;22242;48.796;9.930;2023-01-16T10:48:15;3.60;99.90
36206;DHT22;22242;48.796;9.930;2023-01-16T10:51:01;3.60;99.90
36206;DHT22;22242;48.796;9.930;2023-01-16T10:53:28;3.60;99.90
36206;DHT22;22242;48.796;9.930;2023-01-16T10:55:56;3.60;99.90
36206;DHT22;22242;48.796;9.930;2023-01-16T10:58:26;3.60;99.90
36206;DHT22;22242;48.796;9.930;2023-01-16T11:00:57;3.70;99.90
36206;DHT22;22242;48.796;9.930;2023-01-16T11:03:38;3.60;99.90
36206;DHT22;22242;48.796;9.930;2023-01-16T11:06:13;3.60;99.90
36206;DHT22;22242;48.796;9.930;2023-01-16T11:08:41;3.60;99.90
36206;DHT22;22242;48.796;9.930;2023-01-16T11:11:10;3.50;99.90
36206;DHT22;22242;48.796;9.930;2023-01-16T11:14:11;3.40;99.90
36206;DHT22;22242;48.796;9.930;2023-01-16T11:17:12;3.50;99.90
36206;DHT22;22242;48.796;9.930;2023-01-16T11:20:05;3.50;99.90
36206;DHT22;22242;48.796;9.930;2023-01-16T11:22:36;3.50;99.90
36206;DHT22;22242;48.796;9.930;2023-01-16T11:25:05;3.50;99.90
36206;DHT22;22242;48.796;9.930;2023-01-16T11:27:36;3.50;99.90
36206;DHT22;22242;48.796;9.930;2023-01-16T11:30:07;3.60;99.90
36206;DHT22;22242;48.796;9.930;2023-01-16T11:32:42;3.70;99.90
36206;DHT22;22242;48.796;9.930;2023-01-16T11:35:14;3.70;99.90
36206;DHT22;22242;48.796;9.930;2023-01-16T11:37:42;3.70;99.90
36206;DHT22;22242;48.796;9.930;2023-01-16T11:40:16;3.60;99.90
36206;DHT22;22242;48.796;9.930;2023-01-16T11:42:51;3.60;99.90
36206;DHT22;22242;48.796;9.930;2023-01-16T11:45:40;3.60;99.90
36206;DHT22;22242;48.796;9.930;2023-01-16T11:48:27;3.70;99.90
36206;DHT22;22242;48.796;9.930;2023-01-16T11:50:56;3.80;99.90
36206;DHT22;22242;48.796;9.930;2023-01-16T11:53:29;3.70;99.90
36206;DHT22;22242;48.796;9.930;2023-01-16T11:56:09;3.70;99.90
36206;DHT22;22242;48.796;9.930;2023-01-16T11:58:49;3.70;99.90
36206;DHT22;22242;48.796;9.930;2023-01-16T12:01:21;3.80;99.90
36206;DHT22;22242;48.796;9.930;2023-01-16T12:04:05;3.90;99.90
36206;DHT22;22242;48.796;9.930;2023-01-16T12:06:48;3.90;99.90
36206;DHT22;22242;48.796;9.930;2023-01-16T12:09:43;4.10;99.90
36206;DHT22;22242;48.796;9.930;2023-01-16T12:12:22;4.20;99.90
36206;DHT22;22242;48.796;9.930;2023-01-16T12:15:13;4.30;99.90
36206;DHT22;22242;48.796;9.930;2023-01-16T12:17:55;4.20;99.90
36206;DHT22;22242;48.796;9.930;2023-01-16T12:20:30;4.20;99.90
36206;DHT22;22242;48.796;9.930;2023-01-16T12:23:23;4.20;99.90
36206;DHT22;22242;48.796;9.930;2023-01-16T12:26:06;4.20;99.90
36206;DHT22;22242;48.796;9.930;2023-01-16T12:28:41;4.20;99.90
36206;DHT22;22242;48.796;9.930;2023-01-16T12:32:01;4.30;99.90
36206;DHT22;22242;48.796;9.930;2023-01-16T12:34:36;4.30;99.90
36206;DHT22;22242;48.796;9.930;2023-01-16T12:37:21;4.40;99.90
36206;DHT22;22242;48.796;9.930;2023-01-16T12:39:57;4.50;99.90
36206;DHT22;22242;48.796;9.930;2023-01-16T12:42:35;4.70;99.90
36206;DHT22;22242;48.796;9.930;2023-01-16T12:45:41;4.70;99.90
36206;DHT22;22242;48.796;9.930;2023-01-16T12:48:27;4.80;99.90
36206;DHT22;22242;48.796;9.930;2023-01-16T12:51:13;5.00;99.90
36206;DHT22;22242;48.796;9.930;2023-01-16T12:54:05;5.00;99.90
36206;DHT22;22242;48.796;9.930;2023-01-16T12:56:44;5.10;99.90
36206;DHT22;22242;48.796;9.930;2023-01-16T12:59:17;5.20;99.90
36206;DHT22;22242;48.796;9.930;2023-01-16T13:01:47;5.20;99.90
36206;DHT22;22242;48.796;9.930;2023-01-16T13:04:21;5.20;99.90
36206;DHT22;22242;48.796;9.930;2023-01-16T13:06:51;5.20;99.90
36206;DHT22;22242;48.796;9.930;2023-01-16T13:09:25;5.20;99.90
36206;DHT22;22242;48.796;9.930;2023-01-16T13:11:59;5.20;99.90
36206;DHT22;22242;48.796;9.930;2023-01-16T13:14:46;5.30;99.90
36206;DHT22;22242;48.796;9.930;2023-01-16T13:17:18;5.20;99.90
36206;DHT22;22242;48.796;9.930;2023-01-16T13:19:46;5.30;99.90
36206;DHT22;22242;48.796;9.930;2023-01-16T13:22:20;5.20;99.90
36206;DHT22;22242;48.796;9.930;2023-01-16T13:24:54;5.20;99.90
36206;DHT22;22242;48.796;9.930;2023-01-16T13:27:27;5.20;99.90
36206;DHT22;22242;48.796;9.930;2023-01-16T13:30:03;5.20;99.90
36206;DHT22;22242;48.796;9.930;2023-01-16T13:32:32;5.20;99.90
36206;DHT22;22242;48.796;9.930;2023-01-16T13:35:03;5.20;99.90
36206;DHT22;22242;48.796;9.930;2023-01-16T13:40:45;5.20;99.90
36206;DHT22;22242;48.796;9.930;2023-01-16T13:43:19;5.10;99.90
36206;DHT22;22242;48.796;9.930;2023-01-16T13:46:05;5.20;99.90
36206;DHT22;22242;48.796;9.930;2023-01-16T13:48:33;5.20;99.90
36206;DHT22;22242;48.796;9.930;2023-01-16T13:51:09;5.20;99.90
36206;DHT22;22242;48.796;9.930;2023-01-16T13:53:38;5.20;99.90
36206;DHT22;22242;48.796;9.930;2023-01-16T13:56:09;5.20;99.90
36206;DHT22;22242;48.796;9.930;2023-01-16T13:58:41;5.20;99.90
36206;DHT22;22242;48.796;9.930;2023-01-16T14:01:33;5.20;99.90
36206;DHT22;22242;48.796;9.930;2023-01-16T14:04:32;5.20;99.90
36206;DHT22;22242;48.796;9.930;2023-01-16T14:07:01;5.20;99.90
36206;DHT22;22242;48.796;9.930;2023-01-16T14:10:06;5.20;99.90
36206;DHT22;22242;48.796;9.930;2023-01-16T14:12:35;5.20;99.90
36206;DHT22;22242;48.796;9.930;2023-01-16T14:15:14;5.20;99.90
36206;DHT22;22242;48.796;9.930;2023-01-16T14:18:17;5.20;99.90
36206;DHT22;22242;48.796;9.930;2023-01-16T14:20:50;5.20;99.90
36206;DHT22;22242;48.796;9.930;2023-01-16T14:23:21;5.20;99.90
36206;DHT22;22242;48.796;9.930;2023-01-16T14:26:07;5.30;99.90
36206;DHT22;22242;48.796;9.930;2023-01-16T14:28:38;5.20;99.90
36206;DHT22;22242;48.796;9.930;2023-01-16T14:31:20;5.30;99.90
36206;DHT22;22242;48.796;9.930;2023-01-16T14:33:47;5.30;99.90
36206;DHT22;22242;48.796;9.930;2023-01-16T14:36:14;5.30;99.90
36206;DHT22;22242;48.796;9.930;2023-01-16T14:38:46;5.30;99.90
36206;DHT22;22242;48.796;9.930;2023-01-16T14:41:16;5.40;99.90
36206;DHT22;22242;48.796;9.930;2023-01-16T14:44:12;5.40;99.90
36206;DHT22;22242;48.796;9.930;2023-01-16T14:47:24;5.40;99.90
36206;DHT22;22242;48.796;9.930;2023-01-16T14:50:11;5.50;99.90
36206;DHT22;22242;48.796;9.930;2023-01-16T14:53:16;5.40;99.90
36206;DHT22;22242;48.796;9.930;2023-01-16T14:56:04;5.50;99.90
36206;DHT22;22242;48.796;9.930;2023-01-16T14:58:37;5.40;99.90
36206;DHT22;22242;48.796;9.930;2023-01-16T15:01:16;5.40;99.90
36206;DHT22;22242;48.796;9.930;2023-01-16T15:04:04;5.40;99.90
36206;DHT22;22242;48.796;9.930;2023-01-16T15:06:37;5.40;99.90
36206;DHT22;22242;48.796;9.930;2023-01-16T15:09:05;5.30;99.90
36206;DHT22;22242;48.796;9.930;2023-01-16T15:11:43;5.30;99.90
36206;DHT22;22242;48.796;9.930;2023-01-16T15:14:13;5.20;99.90
36206;DHT22;22242;48.796;9.930;2023-01-16T15:17:17;5.10;99.90
36206;DHT22;22242;48.796;9.930;2023-01-16T15:20:20;5.10;99.90
36206;DHT22;22242;48.796;9.930;2023-01-16T15:23:16;5.00;99.90
36206;DHT22;22242;48.796;9.930;2023-01-16T15:26:12;5.00;99.90
36206;DHT22;22242;48.796;9.930;2023-01-16T15:28:49;4.90;99.90
36206;DHT22;22242;48.796;9.930;2023-01-16T15:31:24;4.80;99.90
36206;DHT22;22242;48.796;9.930;2023-01-16T15:34:03;4.70;99.90
36206;DHT22;22242;48.796;9.930;2023-01-16T15:36:36;4.60;99.90
36206;DHT22;22242;48.796;9.930;2023-01-16T15:39:19;4.70;99.90
36206;DHT22;22242;48.796;9.930;2023-01-16T15:41:50;4.60;99.90
36206;DHT22;22242;48.796;9.930;2023-01-16T15:44:39;4.50;99.90
36206;DHT22;22242;48.796;9.930;2023-01-16T15:50:33;4.40;99.90
36206;DHT22;22242;48.796;9.930;2023-01-16T15:53:03;4.50;99.90
36206;DHT22;22242;48.796;9.930;2023-01-16T15:55:36;4.40;99.90
36206;DHT22;22242;48.796;9.930;2023-01-16T15:58:24;4.30;99.90
36206;DHT22;22242;48.796;9.930;2023-01-16T16:00:55;4.20;99.90
36206;DHT22;22242;48.796;9.930;2023-01-16T16:03:26;4.30;99.90
36206;DHT22;22242;48.796;9.930;2023-01-16T16:05:59;4.40;99.90
36206;DHT22;22242;48.796;9.930;2023-01-16T16:08:30;4.40;99.90
36206;DHT22;22242;48.796;9.930;2023-01-16T16:10:59;4.40;99.90
36206;DHT22;22242;48.796;9.930;2023-01-16T16:13:45;4.50;99.90
36206;DHT22;22242;48.796;9.930;2023-01-16T16:16:18;4.60;99.90
36206;DHT22;22242;48.796;9.930;2023-01-16T16:19:03;4.70;99.90
36206;DHT22;22242;48.796;9.930;2023-01-16T16:21:34;4.90;99.90
36206;DHT22;22242;48.796;9.930;2023-01-16T16:24:05;5.00;99.90
36206;DHT22;22242;48.796;9.930;2023-01-16T16:26:38;5.10;99.90
36206;DHT22;22242;48.796;9.930;2023-01-16T16:29:06;5.10;99.90
36206;DHT22;22242;48.796;9.930;2023-01-16T16:31:34;5.20;99.90
36206;DHT22;22242;48.796;9.930;2023-01-16T16:34:04;5.20;99.90
36206;DHT22;22242;48.796;9.930;2023-01-16T16:36:37;5.30;99.90
36206;DHT22;22242;48.796;9.930;2023-01-16T16:39:26;5.20;99.90